sensor_id;sensor_type;location;lat;lon;timestamp;temperature;humidity
44271;DHT22;29963;44.594;11.368;2023-05-15T00:00:08;14.70;99.90
44271;DHT22;29963;44.594;11.368;2023-05-15T00:02:37;14.70;99.90
44271;DHT22;29963;44.594;11.368;2023-05-15T00:05:06;14.70;99.90
44271;DHT22;29963;44.594;11.368;2023-05-15T00:07:33;14.70;99.90
44271;DHT22;29963;44.594;11.368;2023-05-15T00:09:58;14.70;99.90
44271;DHT22;29963;44.594;11.368;2023-05-15T00:12:24;14.70;99.90
44271;DHT22;29963;44.594;11.368;2023-05-15T00:14:50;14.60;99.90
44271;DHT22;29963;44.594;11.368;2023-05-15T00:17:15;14.60;99.90
44271;DHT22;29963;44.594;11.368;2023-05-15T00:19:41;14.50;99.90
44271;DHT22;29963;44.594;11.368;2023-05-15T00:22:07;14.50;99.90
44271;DHT22;29963;44.594;11.368;2023-05-15T00:24:33;14.60;99.90
44271;DHT22;29963;44.594;11.368;2023-05-15T00:26:59;14.50;99.90
44271;DHT22;29963;44.594;11.368;2023-05-15T00:29:25;14.60;99.90
44271;DHT22;29963;44.594;11.368;2023-05-15T00:31:51;14.60;99.90
44271;DHT22;29963;44.594;11.368;2023-05-15T00:34:16;14.60;99.90
44271;DHT22;29963;44.594;11.368;2023-05-15T00:36:42;14.60;99.90
44271;DHT22;29963;44.594;11.368;2023-05-15T00:39:08;14.70;99.90
44271;DHT22;29963;44.594;11.368;2023-05-15T00:41:34;14.80;99.90
44271;DHT22;29963;44.594;11.368;2023-05-15T00:44:01;14.80;99.90
44271;DHT22;29963;44.594;11.368;2023-05-15T00:46:30;14.80;99.90
44271;DHT22;29963;44.594;11.368;2023-05-15T00:48:57;14.80;99.90
44271;DHT22;29963;44.594;11.368;2023-05-15T00:51:24;14.80;99.90
44271;DHT22;29963;44.594;11.368;2023-05-15T00:53:50;14.80;99.90
44271;DHT22;29963;44.594;11.368;2023-05-15T00:56:17;14.80;99.90
44271;DHT22;29963;44.594;11.368;2023-05-15T00:58:44;14.80;99.90
44271;DHT22;29963;44.594;11.368;2023-05-15T01:01:10;14.90;99.90
44271;DHT22;29963;44.594;11.368;2023-05-15T01:03:36;14.80;99.90
44271;DHT22;29963;44.594;11.368;2023-05-15T01:06:02;14.80;99.90
44271;DHT22;29963;44.594;11.368;2023-05-15T01:10:57;14.80;99.90
44271;DHT22;29963;44.594;11.368;2023-05-15T01:13:23;14.90;99.90
44271;DHT22;29963;44.594;11.368;2023-05-15T01:15:49;15.00;99.90
44271;DHT22;29963;44.594;11.368;2023-05-15T01:18:14;15.00;99.90
44271;DHT22;29963;44.594;11.368;2023-05-15T01:32:18;15.20;99.90
44271;DHT22;29963;44.594;11.368;2023-05-15T01:37:19;15.20;99.90
44271;DHT22;29963;44.594;11.368;2023-05-15T01:39:49;15.20;99.90
44271;DHT22;29963;44.594;11.368;2023-05-15T01:42:18;15.10;99.90
44271;DHT22;29963;44.594;11.368;2023-05-15T01:44:50;15.10;99.90
44271;DHT22;29963;44.594;11.368;2023-05-15T01:47:20;15.10;99.90
44271;DHT22;29963;44.594;11.368;2023-05-15T01:49:48;15.00;99.90
44271;DHT22;29963;44.594;11.368;2023-05-15T01:52:23;15.00;99.90
44271;DHT22;29963;44.594;11.368;2023-05-15T01:54:50;15.00;99.90
44271;DHT22;29963;44.594;11.368;2023-05-15T01:57:18;14.90;99.90
44271;DHT22;29963;44.594;11.368;2023-05-15T01:59:45;15.00;99.90
44271;DHT22;29963;44.594;11.368;2023-05-15T02:02:12;15.00;99.90
44271;DHT22;29963;44.594;11.368;2023-05-15T02:04:39;15.00;99.90
44271;DHT22;29963;44.594;11.368;2023-05-15T02:07:05;15.00;99.90
44271;DHT22;29963;44.594;11.368;2023-05-15T02:09:32;15.00;99.90
44271;DHT22;29963;44.594;11.368;2023-05-15T02:11:59;15.00;99.90
44271;DHT22;29963;44.594;11.368;2023-05-15T02:14:27;15.00;99.90
44271;DHT22;29963;44.594;11.368;2023-05-15T02:16:53;15.00;99.90
44271;DHT22;29963;44.594;11.368;2023-05-15T02:19:19;15.10;99.90
44271;DHT22;29963;44.594;11.368;2023-05-15T02:21:44;15.10;99.90
44271;DHT22;29963;44.594;11.368;2023-05-15T02:24:10;15.10;99.90
44271;DHT22;29963;44.594;11.368;2023-05-15T02:35:20;15.10;99.90
44271;DHT22;29963;44.594;11.368;2023-05-15T02:37:54;15.00;99.90
44271;DHT22;29963;44.594;11.368;2023-05-15T02:40:20;15.00;99.90
44271;DHT22;29963;44.594;11.368;2023-05-15T02:42:49;15.10;99.90
44271;DHT22;29963;44.594;11.368;2023-05-15T02:45:16;15.00;99.90
44271;DHT22;29963;44.594;11.368;2023-05-15T02:47:43;15.00;99.90
44271;DHT22;29963;44.594;11.368;2023-05-15T02:50:09;15.00;99.90
44271;DHT22;29963;44.594;11.368;2023-05-15T02:52:35;15.00;99.90
44271;DHT22;29963;44.594;11.368;2023-05-15T02:55:00;15.10;99.90
44271;DHT22;29963;44.594;11.368;2023-05-15T02:57:26;15.10;99.90
44271;DHT22;29963;44.594;11.368;2023-05-15T02:59:53;15.10;99.90
44271;DHT22;29963;44.594;11.368;2023-05-15T03:02:18;15.10;99.90
44271;DHT22;29963;44.594;11.368;2023-05-15T03:04:44;15.00;99.90
44271;DHT22;29963;44.594;11.368;2023-05-15T03:07:10;14.90;99.90
44271;DHT22;29963;44.594;11.368;2023-05-15T03:09:35;14.90;99.90
44271;DHT22;29963;44.594;11.368;2023-05-15T03:12:01;14.90;99.90
44271;DHT22;29963;44.594;11.368;2023-05-15T03:14:26;14.80;99.90
44271;DHT22;29963;44.594;11.368;2023-05-15T03:16:52;14.80;99.90
44271;DHT22;29963;44.594;11.368;2023-05-15T03:19:18;14.80;99.90
44271;DHT22;29963;44.594;11.368;2023-05-15T03:21:43;14.70;99.90
44271;DHT22;29963;44.594;11.368;2023-05-15T03:24:09;14.70;99.90
44271;DHT22;29963;44.594;11.368;2023-05-15T03:26:34;14.70;99.90
44271;DHT22;29963;44.594;11.368;2023-05-15T03:29:00;14.70;99.90
44271;DHT22;29963;44.594;11.368;2023-05-15T03:31:26;14.70;99.90
44271;DHT22;29963;44.594;11.368;2023-05-15T03:33:52;14.80;99.90
44271;DHT22;29963;44.594;11.368;2023-05-15T03:36:17;14.80;99.90
44271;DHT22;29963;44.594;11.368;2023-05-15T03:38:43;14.70;99.90
44271;DHT22;29963;44.594;11.368;2023-05-15T03:41:11;14.70;99.90
44271;DHT22;29963;44.594;11.368;2023-05-15T03:43:37;14.70;99.90
44271;DHT22;29963;44.594;11.368;2023-05-15T03:46:02;14.80;99.90
44271;DHT22;29963;44.594;11.368;2023-05-15T03:48:28;14.80;99.90
44271;DHT22;29963;44.594;11.368;2023-05-15T03:50:53;14.90;99.90
44271;DHT22;29963;44.594;11.368;2023-05-15T03:53:19;14.80;99.90
44271;DHT22;29963;44.594;11.368;2023-05-15T03:55:44;14.90;99.90
44271;DHT22;29963;44.594;11.368;2023-05-15T03:58:10;14.90;99.90
44271;DHT22;29963;44.594;11.368;2023-05-15T04:00:36;14.90;99.90
44271;DHT22;29963;44.594;11.368;2023-05-15T04:03:01;15.00;99.90
44271;DHT22;29963;44.594;11.368;2023-05-15T04:05:27;14.90;99.90
44271;DHT22;29963;44.594;11.368;2023-05-15T04:07:52;14.80;99.90
44271;DHT22;29963;44.594;11.368;2023-05-15T04:10:18;14.80;99.90
44271;DHT22;29963;44.594;11.368;2023-05-15T04:12:44;14.80;99.90
44271;DHT22;29963;44.594;11.368;2023-05-15T04:15:18;14.90;99.90
44271;DHT22;29963;44.594;11.368;2023-05-15T04:17:44;14.90;99.90
44271;DHT22;29963;44.594;11.368;2023-05-15T04:20:12;14.90;99.90
44271;DHT22;29963;44.594;11.368;2023-05-15T04:22:39;14.90;99.90
44271;DHT22;29963;44.594;11.368;2023-05-15T04:25:05;14.90;99.90
44271;DHT22;29963;44.594;11.368;2023-05-15T04:27:32;14.90;99.90
44271;DHT22;29963;44.594;11.368;2023-05-15T04:29:58;15.00;99.90
44271;DHT22;29963;44.594;11.368;2023-05-15T04:32:24;15.00;99.90
44271;DHT22;29963;44.594;11.368;2023-05-15T04:34:50;15.00;99.90
44271;DHT22;29963;44.594;11.368;2023-05-15T04:37:15;15.10;99.90
44271;DHT22;29963;44.594;11.368;2023-05-15T04:39:41;15.10;99.90
44271;DHT22;29963;44.594;11.368;2023-05-15T04:42:06;15.10;99.90
44271;DHT22;29963;44.594;11.368;2023-05-15T04:44:32;15.10;99.90
44271;DHT22;29963;44.594;11.368;2023-05-15T04:46:58;15.00;99.90
44271;DHT22;29963;44.594;11.368;2023-05-15T04:49:23;15.00;99.90
44271;DHT22;29963;44.594;11.368;2023-05-15T04:51:49;14.90;99.90
44271;DHT22;29963;44.594;11.368;2023-05-15T04:54:14;14.90;99.90
44271;DHT22;29963;44.594;11.368;2023-05-15T04:56:40;15.00;99.90
44271;DHT22;29963;44.594;11.368;2023-05-15T04:59:05;15.00;99.90
44271;DHT22;29963;44.594;11.368;2023-05-15T05:01:31;15.00;99.90
44271;DHT22;29963;44.594;11.368;2023-05-15T05:03:57;14.90;99.90
44271;DHT22;29963;44.594;11.368;2023-05-15T05:06:22;14.90;99.90
44271;DHT22;29963;44.594;11.368;2023-05-15T05:08:48;14.90;99.90
44271;DHT22;29963;44.594;11.368;2023-05-15T05:11:14;14.90;99.90
44271;DHT22;29963;44.594;11.368;2023-05-15T05:13:39;14.90;99.90
44271;DHT22;29963;44.594;11.368;2023-05-15T05:16:06;14.90;99.90
44271;DHT22;29963;44.594;11.368;2023-05-15T05:18:31;14.90;99.90
44271;DHT22;29963;44.594;11.368;2023-05-15T05:21:00;15.00;99.90
44271;DHT22;29963;44.594;11.368;2023-05-15T05:23:27;15.10;99.90
44271;DHT22;29963;44.594;11.368;2023-05-15T05:25:52;15.20;99.90
44271;DHT22;29963;44.594;11.368;2023-05-15T05:28:18;15.20;99.90
44271;DHT22;29963;44.594;11.368;2023-05-15T05:30:44;15.20;99.90
44271;DHT22;29963;44.594;11.368;2023-05-15T05:33:10;15.20;99.90
44271;DHT22;29963;44.594;11.368;2023-05-15T05:35:36;15.20;99.90
44271;DHT22;29963;44.594;11.368;2023-05-15T05:38:01;15.10;99.90
44271;DHT22;29963;44.594;11.368;2023-05-15T05:40:27;15.10;99.90
44271;DHT22;29963;44.594;11.368;2023-05-15T05:42:53;15.10;99.90
44271;DHT22;29963;44.594;11.368;2023-05-15T05:45:19;15.10;99.90
44271;DHT22;29963;44.594;11.368;2023-05-15T05:47:44;15.10;99.90
44271;DHT22;29963;44.594;11.368;2023-05-15T05:50:10;15.00;99.90
44271;DHT22;29963;44.594;11.368;2023-05-15T05:52:36;15.00;99.90
44271;DHT22;29963;44.594;11.368;2023-05-15T05:55:01;14.90;99.90
44271;DHT22;29963;44.594;11.368;2023-05-15T05:57:27;14.90;99.90
44271;DHT22;29963;44.594;11.368;2023-05-15T05:59:53;15.00;99.90
44271;DHT22;29963;44.594;11.368;2023-05-15T06:02:18;15.00;99.90
44271;DHT22;29963;44.594;11.368;2023-05-15T06:04:44;15.10;99.90
44271;DHT22;29963;44.594;11.368;2023-05-15T06:07:10;15.10;99.90
44271;DHT22;29963;44.594;11.368;2023-05-15T06:09:36;15.10;99.90
44271;DHT22;29963;44.594;11.368;2023-05-15T06:12:02;15.10;99.90
44271;DHT22;29963;44.594;11.368;2023-05-15T06:14:29;15.20;99.90
44271;DHT22;29963;44.594;11.368;2023-05-15T06:16:55;15.30;99.90
44271;DHT22;29963;44.594;11.368;2023-05-15T06:19:20;15.40;99.90
44271;DHT22;29963;44.594;11.368;2023-05-15T06:21:46;15.50;99.90
44271;DHT22;29963;44.594;11.368;2023-05-15T06:24:13;15.50;99.90
44271;DHT22;29963;44.594;11.368;2023-05-15T06:26:39;15.60;99.90
44271;DHT22;29963;44.594;11.368;2023-05-15T06:29:04;15.60;99.90
44271;DHT22;29963;44.594;11.368;2023-05-15T06:31:30;15.70;99.90
44271;DHT22;29963;44.594;11.368;2023-05-15T06:33:55;15.80;99.90
44271;DHT22;29963;44.594;11.368;2023-05-15T06:36:21;15.80;99.90
44271;DHT22;29963;44.594;11.368;2023-05-15T06:38:47;15.80;99.90
44271;DHT22;29963;44.594;11.368;2023-05-15T06:41:12;15.80;99.90
44271;DHT22;29963;44.594;11.368;2023-05-15T06:43:38;15.80;99.90
44271;DHT22;29963;44.594;11.368;2023-05-15T06:46:03;15.70;99.90
44271;DHT22;29963;44.594;11.368;2023-05-15T06:48:29;15.70;99.90
44271;DHT22;29963;44.594;11.368;2023-05-15T06:50:54;15.60;99.90
44271;DHT22;29963;44.594;11.368;2023-05-15T06:53:20;15.60;99.90
44271;DHT22;29963;44.594;11.368;2023-05-15T06:55:46;15.60;99.90
44271;DHT22;29963;44.594;11.368;2023-05-15T06:58:11;15.50;99.90
44271;DHT22;29963;44.594;11.368;2023-05-15T07:00:37;15.50;99.90
44271;DHT22;29963;44.594;11.368;2023-05-15T07:03:02;15.50;99.90
44271;DHT22;29963;44.594;11.368;2023-05-15T07:05:28;15.50;99.90
44271;DHT22;29963;44.594;11.368;2023-05-15T07:07:53;15.60;99.90
44271;DHT22;29963;44.594;11.368;2023-05-15T07:10:19;15.60;99.90
44271;DHT22;29963;44.594;11.368;2023-05-15T07:12:45;15.70;99.90
44271;DHT22;29963;44.594;11.368;2023-05-15T07:15:11;15.70;99.90
44271;DHT22;29963;44.594;11.368;2023-05-15T07:17:36;15.80;99.90
44271;DHT22;29963;44.594;11.368;2023-05-15T07:20:02;15.80;99.90
44271;DHT22;29963;44.594;11.368;2023-05-15T07:22:30;15.80;99.90
44271;DHT22;29963;44.594;11.368;2023-05-15T07:24:55;15.90;99.90
44271;DHT22;29963;44.594;11.368;2023-05-15T07:27:21;16.00;99.90
44271;DHT22;29963;44.594;11.368;2023-05-15T07:29:47;16.10;99.90
44271;DHT22;29963;44.594;11.368;2023-05-15T07:32:12;16.20;99.90
44271;DHT22;29963;44.594;11.368;2023-05-15T07:34:38;16.30;99.90
44271;DHT22;29963;44.594;11.368;2023-05-15T07:37:04;16.30;99.90
44271;DHT22;29963;44.594;11.368;2023-05-15T07:39:29;16.40;99.90
44271;DHT22;29963;44.594;11.368;2023-05-15T07:41:55;16.60;99.90
44271;DHT22;29963;44.594;11.368;2023-05-15T07:44:20;16.70;99.90
44271;DHT22;29963;44.594;11.368;2023-05-15T07:46:46;16.80;99.90
44271;DHT22;29963;44.594;11.368;2023-05-15T07:49:12;16.80;99.90
44271;DHT22;29963;44.594;11.368;2023-05-15T07:51:37;16.90;99.90
44271;DHT22;29963;44.594;11.368;2023-05-15T07:54:03;16.90;99.90
44271;DHT22;29963;44.594;11.368;2023-05-15T07:56:29;17.00;99.90
44271;DHT22;29963;44.594;11.368;2023-05-15T07:58:54;17.10;99.90
44271;DHT22;29963;44.594;11.368;2023-05-15T08:01:20;17.20;99.90
44271;DHT22;29963;44.594;11.368;2023-05-15T08:03:45;17.20;99.90
44271;DHT22;29963;44.594;11.368;2023-05-15T08:06:11;17.20;99.90
44271;DHT22;29963;44.594;11.368;2023-05-15T08:08:37;17.30;99.90
44271;DHT22;29963;44.594;11.368;2023-05-15T08:11:02;17.20;99.90
44271;DHT22;29963;44.594;11.368;2023-05-15T08:13:28;17.20;99.90
44271;DHT22;29963;44.594;11.368;2023-05-15T08:15:53;17.20;99.90
44271;DHT22;29963;44.594;11.368;2023-05-15T08:18:19;17.30;99.90
44271;DHT22;29963;44.594;11.368;2023-05-15T08:20:45;17.40;99.90
44271;DHT22;29963;44.594;11.368;2023-05-15T08:23:10;17.50;99.90
44271;DHT22;29963;44.594;11.368;2023-05-15T08:25:36;17.70;99.90
44271;DHT22;29963;44.594;11.368;2023-05-15T08:28:03;17.80;99.90
44271;DHT22;29963;44.594;11.368;2023-05-15T08:30:29;17.80;99.90
44271;DHT22;29963;44.594;11.368;2023-05-15T08:32:54;17.90;99.90
44271;DHT22;29963;44.594;11.368;2023-05-15T08:35:20;18.10;99.90
44271;DHT22;29963;44.594;11.368;2023-05-15T08:37:45;18.20;99.90
44271;DHT22;29963;44.594;11.368;2023-05-15T08:40:11;18.20;99.90
44271;DHT22;29963;44.594;11.368;2023-05-15T08:42:46;18.30;99.90
44271;DHT22;29963;44.594;11.368;2023-05-15T08:45:13;18.50;99.90
44271;DHT22;29963;44.594;11.368;2023-05-15T08:47:39;18.60;99.90
44271;DHT22;29963;44.594;11.368;2023-05-15T08:50:13;18.70;99.90
44271;DHT22;29963;44.594;11.368;2023-05-15T08:52:44;18.80;99.90
44271;DHT22;29963;44.594;11.368;2023-05-15T08:55:12;18.80;99.90
44271;DHT22;29963;44.594;11.368;2023-05-15T08:57:38;18.90;99.90
44271;DHT22;29963;44.594;11.368;2023-05-15T09:00:04;18.90;99.90
44271;DHT22;29963;44.594;11.368;2023-05-15T09:02:37;19.00;99.90
44271;DHT22;29963;44.594;11.368;2023-05-15T09:05:04;19.00;99.90
44271;DHT22;29963;44.594;11.368;2023-05-15T09:07:31;19.10;99.90
44271;DHT22;29963;44.594;11.368;2023-05-15T09:09:57;19.10;99.90
44271;DHT22;29963;44.594;11.368;2023-05-15T09:12:24;19.20;99.90
44271;DHT22;29963;44.594;11.368;2023-05-15T09:14:50;19.20;99.90
44271;DHT22;29963;44.594;11.368;2023-05-15T09:17:16;19.10;99.90
44271;DHT22;29963;44.594;11.368;2023-05-15T09:19:42;19.10;99.90
44271;DHT22;29963;44.594;11.368;2023-05-15T09:22:18;18.90;99.90
44271;DHT22;29963;44.594;11.368;2023-05-15T09:24:49;18.80;99.90
44271;DHT22;29963;44.594;11.368;2023-05-15T09:27:17;18.70;99.90
44271;DHT22;29963;44.594;11.368;2023-05-15T09:29:43;18.60;99.90
44271;DHT22;29963;44.594;11.368;2023-05-15T09:32:13;18.60;99.90
44271;DHT22;29963;44.594;11.368;2023-05-15T09:34:41;18.60;99.90
44271;DHT22;29963;44.594;11.368;2023-05-15T09:37:27;18.60;99.90
44271;DHT22;29963;44.594;11.368;2023-05-15T09:39:53;18.70;99.90
44271;DHT22;29963;44.594;11.368;2023-05-15T09:42:19;18.80;99.90
44271;DHT22;29963;44.594;11.368;2023-05-15T09:44:45;18.80;99.90
44271;DHT22;29963;44.594;11.368;2023-05-15T09:47:14;18.90;99.90
44271;DHT22;29963;44.594;11.368;2023-05-15T09:49:44;19.00;99.90
44271;DHT22;29963;44.594;11.368;2023-05-15T09:52:11;19.10;99.90
44271;DHT22;29963;44.594;11.368;2023-05-15T09:54:37;19.10;99.90
44271;DHT22;29963;44.594;11.368;2023-05-15T09:57:11;19.20;99.90
44271;DHT22;29963;44.594;11.368;2023-05-15T09:59:44;19.40;99.90
44271;DHT22;29963;44.594;11.368;2023-05-15T10:02:13;19.50;99.90
44271;DHT22;29963;44.594;11.368;2023-05-15T10:04:53;19.60;99.90
44271;DHT22;29963;44.594;11.368;2023-05-15T10:07:35;19.50;99.90
44271;DHT22;29963;44.594;11.368;2023-05-15T10:10:02;19.50;99.90
44271;DHT22;29963;44.594;11.368;2023-05-15T10:12:29;19.30;99.90
44271;DHT22;29963;44.594;11.368;2023-05-15T10:14:57;19.10;99.90
44271;DHT22;29963;44.594;11.368;2023-05-15T10:17:27;19.00;99.90
44271;DHT22;29963;44.594;11.368;2023-05-15T10:19:53;18.90;99.90
44271;DHT22;29963;44.594;11.368;2023-05-15T10:22:22;19.00;99.90
44271;DHT22;29963;44.594;11.368;2023-05-15T10:24:58;19.00;99.90
44271;DHT22;29963;44.594;11.368;2023-05-15T10:27:25;19.00;99.90
44271;DHT22;29963;44.594;11.368;2023-05-15T10:29:52;19.10;99.90
44271;DHT22;29963;44.594;11.368;2023-05-15T10:32:19;19.10;99.90
44271;DHT22;29963;44.594;11.368;2023-05-15T10:34:45;19.20;99.90
44271;DHT22;29963;44.594;11.368;2023-05-15T10:37:13;19.20;99.90
44271;DHT22;29963;44.594;11.368;2023-05-15T10:39:39;19.30;99.90
44271;DHT22;29963;44.594;11.368;2023-05-15T10:42:06;19.40;99.90
44271;DHT22;29963;44.594;11.368;2023-05-15T10:44:32;19.50;99.90
44271;DHT22;29963;44.594;11.368;2023-05-15T10:46:58;19.60;99.90
44271;DHT22;29963;44.594;11.368;2023-05-15T10:49:24;19.60;99.90
44271;DHT22;29963;44.594;11.368;2023-05-15T10:51:51;19.70;99.90
44271;DHT22;29963;44.594;11.368;2023-05-15T10:54:17;19.80;99.90
44271;DHT22;29963;44.594;11.368;2023-05-15T10:56:43;19.90;99.90
44271;DHT22;29963;44.594;11.368;2023-05-15T10:59:10;20.00;99.90
44271;DHT22;29963;44.594;11.368;2023-05-15T11:01:37;20.10;99.90
44271;DHT22;29963;44.594;11.368;2023-05-15T11:06:35;20.20;99.90
44271;DHT22;29963;44.594;11.368;2023-05-15T11:11:57;20.30;99.90
44271;DHT22;29963;44.594;11.368;2023-05-15T11:14:23;20.40;99.90
44271;DHT22;29963;44.594;11.368;2023-05-15T11:24:31;20.90;99.90
44271;DHT22;29963;44.594;11.368;2023-05-15T11:27:01;21.00;99.90
44271;DHT22;29963;44.594;11.368;2023-05-15T11:29:28;21.00;99.90
44271;DHT22;29963;44.594;11.368;2023-05-15T11:31:54;21.10;99.90
44271;DHT22;29963;44.594;11.368;2023-05-15T11:34:40;21.20;99.90
44271;DHT22;29963;44.594;11.368;2023-05-15T11:37:16;21.30;99.90
44271;DHT22;29963;44.594;11.368;2023-05-15T11:39:43;21.40;99.90
44271;DHT22;29963;44.594;11.368;2023-05-15T11:42:11;21.40;99.90
44271;DHT22;29963;44.594;11.368;2023-05-15T11:44:38;21.50;99.90
44271;DHT22;29963;44.594;11.368;2023-05-15T11:47:08;21.50;99.90
44271;DHT22;29963;44.594;11.368;2023-05-15T11:49:34;21.50;99.90
44271;DHT22;29963;44.594;11.368;2023-05-15T11:52:01;21.50;99.90
44271;DHT22;29963;44.594;11.368;2023-05-15T11:54:28;21.40;99.90
44271;DHT22;29963;44.594;11.368;2023-05-15T11:56:56;21.40;99.90
44271;DHT22;29963;44.594;11.368;2023-05-15T11:59:25;21.50;99.90
44271;DHT22;29963;44.594;11.368;2023-05-15T12:01:51;21.50;99.90
44271;DHT22;29963;44.594;11.368;2023-05-15T12:04:17;21.60;99.90
44271;DHT22;29963;44.594;11.368;2023-05-15T12:06:44;21.60;99.90
44271;DHT22;29963;44.594;11.368;2023-05-15T12:09:15;21.60;99.90
44271;DHT22;29963;44.594;11.368;2023-05-15T12:11:50;21.70;99.90
44271;DHT22;29963;44.594;11.368;2023-05-15T12:14:16;21.60;99.90
44271;DHT22;29963;44.594;11.368;2023-05-15T12:16:42;21.60;99.90
44271;DHT22;29963;44.594;11.368;2023-05-15T12:19:07;21.60;99.90
44271;DHT22;29963;44.594;11.368;2023-05-15T12:21:34;21.60;99.90
44271;DHT22;29963;44.594;11.368;2023-05-15T12:23:59;21.60;99.90
44271;DHT22;29963;44.594;11.368;2023-05-15T12:26:26;21.60;99.90
44271;DHT22;29963;44.594;11.368;2023-05-15T12:28:53;21.70;99.90
44271;DHT22;29963;44.594;11.368;2023-05-15T12:31:20;21.80;99.90
44271;DHT22;29963;44.594;11.368;2023-05-15T12:33:46;21.80;99.90
44271;DHT22;29963;44.594;11.368;2023-05-15T12:36:11;21.70;99.90
44271;DHT22;29963;44.594;11.368;2023-05-15T12:38:38;21.80;99.90
44271;DHT22;29963;44.594;11.368;2023-05-15T12:41:04;21.90;99.90
44271;DHT22;29963;44.594;11.368;2023-05-15T12:43:30;22.00;99.90
44271;DHT22;29963;44.594;11.368;2023-05-15T12:45:56;22.10;99.90
44271;DHT22;29963;44.594;11.368;2023-05-15T12:48:27;22.10;99.90
44271;DHT22;29963;44.594;11.368;2023-05-15T12:50:53;22.10;99.90
44271;DHT22;29963;44.594;11.368;2023-05-15T12:53:21;22.20;99.90
44271;DHT22;29963;44.594;11.368;2023-05-15T12:55:47;22.20;99.90
44271;DHT22;29963;44.594;11.368;2023-05-15T12:58:14;22.30;99.90
44271;DHT22;29963;44.594;11.368;2023-05-15T13:00:43;22.40;99.90
44271;DHT22;29963;44.594;11.368;2023-05-15T13:03:13;22.40;99.90
44271;DHT22;29963;44.594;11.368;2023-05-15T13:05:42;22.40;99.90
44271;DHT22;29963;44.594;11.368;2023-05-15T13:08:08;22.50;99.90
44271;DHT22;29963;44.594;11.368;2023-05-15T13:10:38;22.50;99.90
44271;DHT22;29963;44.594;11.368;2023-05-15T13:13:04;22.60;99.90
44271;DHT22;29963;44.594;11.368;2023-05-15T13:15:36;22.70;99.90
44271;DHT22;29963;44.594;11.368;2023-05-15T13:18:06;22.70;99.90
44271;DHT22;29963;44.594;11.368;2023-05-15T13:23:00;22.80;99.90
44271;DHT22;29963;44.594;11.368;2023-05-15T13:25:26;22.90;99.90
44271;DHT22;29963;44.594;11.368;2023-05-15T13:27:52;23.00;99.90
44271;DHT22;29963;44.594;11.368;2023-05-15T13:30:18;23.00;99.90
44271;DHT22;29963;44.594;11.368;2023-05-15T13:32:44;23.10;99.90
44271;DHT22;29963;44.594;11.368;2023-05-15T13:35:10;23.10;99.90
44271;DHT22;29963;44.594;11.368;2023-05-15T13:37:36;23.30;99.90
44271;DHT22;29963;44.594;11.368;2023-05-15T13:40:03;23.30;99.90
44271;DHT22;29963;44.594;11.368;2023-05-15T13:42:31;23.40;99.90
44271;DHT22;29963;44.594;11.368;2023-05-15T13:44:57;23.40;99.90
44271;DHT22;29963;44.594;11.368;2023-05-15T13:47:22;23.40;99.90
44271;DHT22;29963;44.594;11.368;2023-05-15T13:49:48;23.40;99.90
44271;DHT22;29963;44.594;11.368;2023-05-15T13:52:13;23.50;99.90
44271;DHT22;29963;44.594;11.368;2023-05-15T13:54:39;23.70;99.90
44271;DHT22;29963;44.594;11.368;2023-05-15T13:57:05;23.70;99.90
44271;DHT22;29963;44.594;11.368;2023-05-15T13:59:30;23.70;99.90
44271;DHT22;29963;44.594;11.368;2023-05-15T14:01:56;23.60;99.90
44271;DHT22;29963;44.594;11.368;2023-05-15T14:04:21;23.50;99.90
44271;DHT22;29963;44.594;11.368;2023-05-15T14:06:47;23.40;99.90
44271;DHT22;29963;44.594;11.368;2023-05-15T14:09:13;23.50;99.90
44271;DHT22;29963;44.594;11.368;2023-05-15T14:11:38;23.70;99.90
44271;DHT22;29963;44.594;11.368;2023-05-15T14:14:04;23.90;99.90
44271;DHT22;29963;44.594;11.368;2023-05-15T14:16:29;24.10;99.90
44271;DHT22;29963;44.594;11.368;2023-05-15T14:18:55;24.20;99.90
44271;DHT22;29963;44.594;11.368;2023-05-15T14:21:21;24.30;99.90
44271;DHT22;29963;44.594;11.368;2023-05-15T14:23:47;24.30;99.90
44271;DHT22;29963;44.594;11.368;2023-05-15T14:26:12;24.50;99.90
44271;DHT22;29963;44.594;11.368;2023-05-15T14:28:38;24.60;99.90
44271;DHT22;29963;44.594;11.368;2023-05-15T14:31:03;24.90;99.90
44271;DHT22;29963;44.594;11.368;2023-05-15T14:33:29;25.10;99.90
44271;DHT22;29963;44.594;11.368;2023-05-15T14:35:54;25.20;99.90
44271;DHT22;29963;44.594;11.368;2023-05-15T14:38:20;25.20;99.90
44271;DHT22;29963;44.594;11.368;2023-05-15T14:40:45;25.30;99.90
44271;DHT22;29963;44.594;11.368;2023-05-15T14:43:11;25.40;99.90
44271;DHT22;29963;44.594;11.368;2023-05-15T14:45:37;25.50;99.90
44271;DHT22;29963;44.594;11.368;2023-05-15T14:48:02;25.60;99.90
44271;DHT22;29963;44.594;11.368;2023-05-15T14:50:28;25.70;99.90
44271;DHT22;29963;44.594;11.368;2023-05-15T14:52:53;25.90;99.90
44271;DHT22;29963;44.594;11.368;2023-05-15T14:55:19;26.10;99.90
44271;DHT22;29963;44.594;11.368;2023-05-15T14:57:46;26.10;99.60
44271;DHT22;29963;44.594;11.368;2023-05-15T15:00:15;26.20;99.60
44271;DHT22;29963;44.594;11.368;2023-05-15T15:02:41;26.10;98.80
44271;DHT22;29963;44.594;11.368;2023-05-15T15:05:08;25.80;99.30
44271;DHT22;29963;44.594;11.368;2023-05-15T15:10:28;25.60;99.90
44271;DHT22;29963;44.594;11.368;2023-05-15T15:12:54;25.80;99.60
44271;DHT22;29963;44.594;11.368;2023-05-15T15:15:20;26.10;99.90
44271;DHT22;29963;44.594;11.368;2023-05-15T15:17:46;26.50;99.60
44271;DHT22;29963;44.594;11.368;2023-05-15T15:20:12;26.90;99.30
44271;DHT22;29963;44.594;11.368;2023-05-15T15:22:39;27.20;99.20
44271;DHT22;29963;44.594;11.368;2023-05-15T15:25:05;27.80;97.80
44271;DHT22;29963;44.594;11.368;2023-05-15T15:27:32;28.50;97.40
44271;DHT22;29963;44.594;11.368;2023-05-15T15:29:58;29.40;95.80
44271;DHT22;29963;44.594;11.368;2023-05-15T15:32:24;30.10;94.70
44271;DHT22;29963;44.594;11.368;2023-05-15T15:34:49;30.80;93.00
44271;DHT22;29963;44.594;11.368;2023-05-15T15:37:15;31.20;92.10
44271;DHT22;29963;44.594;11.368;2023-05-15T15:39:41;31.60;90.90
44271;DHT22;29963;44.594;11.368;2023-05-15T15:42:06;31.60;90.50
44271;DHT22;29963;44.594;11.368;2023-05-15T15:44:33;31.80;88.30
44271;DHT22;29963;44.594;11.368;2023-05-15T15:46:58;32.10;89.50
44271;DHT22;29963;44.594;11.368;2023-05-15T15:49:24;32.50;89.20
44271;DHT22;29963;44.594;11.368;2023-05-15T15:51:50;32.90;86.70
44271;DHT22;29963;44.594;11.368;2023-05-15T15:54:15;33.00;85.00